sensor_id;sensor_type;location;lat;lon;timestamp;temperature;humidity
41904;DHT22;27586;51.124;4.182;2022-09-13T00:00:33;18.90;99.90
41904;DHT22;27586;51.124;4.182;2022-09-13T00:02:59;18.90;99.90
41904;DHT22;27586;51.124;4.182;2022-09-13T00:05:26;18.90;99.90
41904;DHT22;27586;51.124;4.182;2022-09-13T00:07:51;19.00;99.90
41904;DHT22;27586;51.124;4.182;2022-09-13T00:10:17;19.00;99.90
41904;DHT22;27586;51.124;4.182;2022-09-13T00:12:43;19.00;99.90
41904;DHT22;27586;51.124;4.182;2022-09-13T00:15:09;19.10;99.90
41904;DHT22;27586;51.124;4.182;2022-09-13T00:17:35;19.10;99.90
41904;DHT22;27586;51.124;4.182;2022-09-13T00:20:02;19.20;99.90
41904;DHT22;27586;51.124;4.182;2022-09-13T00:22:27;19.20;99.90
41904;DHT22;27586;51.124;4.182;2022-09-13T00:24:53;19.20;99.90
41904;DHT22;27586;51.124;4.182;2022-09-13T00:27:19;19.20;99.90
41904;DHT22;27586;51.124;4.182;2022-09-13T00:29:45;19.20;99.90
41904;DHT22;27586;51.124;4.182;2022-09-13T00:32:11;19.20;99.90
41904;DHT22;27586;51.124;4.182;2022-09-13T00:34:37;19.20;99.90
41904;DHT22;27586;51.124;4.182;2022-09-13T00:37:03;19.20;99.90
41904;DHT22;27586;51.124;4.182;2022-09-13T00:39:29;19.20;99.90
41904;DHT22;27586;51.124;4.182;2022-09-13T00:41:54;19.20;99.90
41904;DHT22;27586;51.124;4.182;2022-09-13T00:44:54;19.20;99.90
41904;DHT22;27586;51.124;4.182;2022-09-13T00:49:58;19.20;99.90
41904;DHT22;27586;51.124;4.182;2022-09-13T00:52:28;19.20;99.90
41904;DHT22;27586;51.124;4.182;2022-09-13T00:55:01;19.10;99.90
41904;DHT22;27586;51.124;4.182;2022-09-13T00:57:28;19.10;99.90
41904;DHT22;27586;51.124;4.182;2022-09-13T01:00:08;19.10;99.90
41904;DHT22;27586;51.124;4.182;2022-09-13T01:02:39;19.10;99.90
41904;DHT22;27586;51.124;4.182;2022-09-13T01:05:07;19.00;99.90
41904;DHT22;27586;51.124;4.182;2022-09-13T01:07:33;19.00;99.90
41904;DHT22;27586;51.124;4.182;2022-09-13T01:10:01;19.00;99.90
41904;DHT22;27586;51.124;4.182;2022-09-13T01:15:10;19.00;99.90
41904;DHT22;27586;51.124;4.182;2022-09-13T01:17:37;18.90;99.90
41904;DHT22;27586;51.124;4.182;2022-09-13T01:20:05;19.00;99.90
41904;DHT22;27586;51.124;4.182;2022-09-13T01:41:49;18.70;99.90
41904;DHT22;27586;51.124;4.182;2022-09-13T01:44:30;18.70;99.90
41904;DHT22;27586;51.124;4.182;2022-09-13T01:47:26;18.70;99.90
41904;DHT22;27586;51.124;4.182;2022-09-13T01:50:14;18.60;99.90
41904;DHT22;27586;51.124;4.182;2022-09-13T01:52:56;18.60;99.90
41904;DHT22;27586;51.124;4.182;2022-09-13T01:55:43;18.60;99.90
41904;DHT22;27586;51.124;4.182;2022-09-13T01:58:26;18.60;99.90
41904;DHT22;27586;51.124;4.182;2022-09-13T02:03:30;18.50;99.90
41904;DHT22;27586;51.124;4.182;2022-09-13T02:06:07;18.50;99.90
41904;DHT22;27586;51.124;4.182;2022-09-13T02:08:39;18.40;99.90
41904;DHT22;27586;51.124;4.182;2022-09-13T02:11:09;18.30;99.90
41904;DHT22;27586;51.124;4.182;2022-09-13T02:13:39;18.30;99.90
41904;DHT22;27586;51.124;4.182;2022-09-13T02:16:38;18.40;99.90
41904;DHT22;27586;51.124;4.182;2022-09-13T02:19:07;18.40;99.90
41904;DHT22;27586;51.124;4.182;2022-09-13T02:21:38;18.50;99.90
41904;DHT22;27586;51.124;4.182;2022-09-13T02:24:10;18.50;99.90
41904;DHT22;27586;51.124;4.182;2022-09-13T02:26:38;18.50;99.90
41904;DHT22;27586;51.124;4.182;2022-09-13T02:29:09;18.50;99.90
41904;DHT22;27586;51.124;4.182;2022-09-13T02:31:41;18.50;99.90
41904;DHT22;27586;51.124;4.182;2022-09-13T02:34:17;18.50;99.90
41904;DHT22;27586;51.124;4.182;2022-09-13T02:36:45;18.40;99.90
41904;DHT22;27586;51.124;4.182;2022-09-13T02:39:15;18.40;99.90
41904;DHT22;27586;51.124;4.182;2022-09-13T02:41:50;18.40;99.90
41904;DHT22;27586;51.124;4.182;2022-09-13T02:52:50;18.40;99.90
41904;DHT22;27586;51.124;4.182;2022-09-13T02:55:30;18.40;99.90
41904;DHT22;27586;51.124;4.182;2022-09-13T02:58:05;18.50;99.90
41904;DHT22;27586;51.124;4.182;2022-09-13T03:00:33;18.50;99.90
41904;DHT22;27586;51.124;4.182;2022-09-13T03:03:04;18.50;99.90
41904;DHT22;27586;51.124;4.182;2022-09-13T03:05:31;18.50;99.90
41904;DHT22;27586;51.124;4.182;2022-09-13T03:07:58;18.50;99.90
41904;DHT22;27586;51.124;4.182;2022-09-13T03:10:27;18.40;99.90
41904;DHT22;27586;51.124;4.182;2022-09-13T03:21:30;18.50;99.90
41904;DHT22;27586;51.124;4.182;2022-09-13T03:24:23;18.40;99.90
41904;DHT22;27586;51.124;4.182;2022-09-13T03:27:08;18.40;99.90
41904;DHT22;27586;51.124;4.182;2022-09-13T03:30:03;18.40;99.90
41904;DHT22;27586;51.124;4.182;2022-09-13T03:35:43;18.50;99.90
41904;DHT22;27586;51.124;4.182;2022-09-13T03:38:18;18.50;99.90
41904;DHT22;27586;51.124;4.182;2022-09-13T03:40:51;18.40;99.90
41904;DHT22;27586;51.124;4.182;2022-09-13T03:43:32;18.40;99.90
41904;DHT22;27586;51.124;4.182;2022-09-13T03:46:11;18.40;99.90
41904;DHT22;27586;51.124;4.182;2022-09-13T03:48:40;18.50;99.90
41904;DHT22;27586;51.124;4.182;2022-09-13T03:51:08;18.50;99.90
41904;DHT22;27586;51.124;4.182;2022-09-13T03:53:38;18.50;99.90
41904;DHT22;27586;51.124;4.182;2022-09-13T03:56:15;18.50;99.90
41904;DHT22;27586;51.124;4.182;2022-09-13T03:58:41;18.60;99.90
41904;DHT22;27586;51.124;4.182;2022-09-13T04:01:08;18.60;99.90
41904;DHT22;27586;51.124;4.182;2022-09-13T04:03:36;18.60;99.90
41904;DHT22;27586;51.124;4.182;2022-09-13T04:06:02;18.60;99.90
41904;DHT22;27586;51.124;4.182;2022-09-13T04:08:28;18.60;99.90
41904;DHT22;27586;51.124;4.182;2022-09-13T04:10:53;18.60;99.90
41904;DHT22;27586;51.124;4.182;2022-09-13T04:13:19;18.60;99.90
41904;DHT22;27586;51.124;4.182;2022-09-13T04:15:47;18.40;99.90
41904;DHT22;27586;51.124;4.182;2022-09-13T04:18:13;18.50;99.90
41904;DHT22;27586;51.124;4.182;2022-09-13T04:20:39;18.40;99.90
41904;DHT22;27586;51.124;4.182;2022-09-13T04:23:04;18.40;99.90
41904;DHT22;27586;51.124;4.182;2022-09-13T04:25:30;18.40;99.90
41904;DHT22;27586;51.124;4.182;2022-09-13T04:27:56;18.40;99.90
41904;DHT22;27586;51.124;4.182;2022-09-13T04:30:26;18.50;99.90
41904;DHT22;27586;51.124;4.182;2022-09-13T04:32:52;18.50;99.90
41904;DHT22;27586;51.124;4.182;2022-09-13T04:35:22;18.40;99.90
41904;DHT22;27586;51.124;4.182;2022-09-13T04:37:48;18.40;99.90
41904;DHT22;27586;51.124;4.182;2022-09-13T04:40:13;18.40;99.90
41904;DHT22;27586;51.124;4.182;2022-09-13T04:42:39;18.40;99.90
41904;DHT22;27586;51.124;4.182;2022-09-13T04:45:05;18.40;99.90
41904;DHT22;27586;51.124;4.182;2022-09-13T04:47:31;18.40;99.90
41904;DHT22;27586;51.124;4.182;2022-09-13T04:49:57;18.40;99.90
41904;DHT22;27586;51.124;4.182;2022-09-13T04:52:23;18.40;99.90
41904;DHT22;27586;51.124;4.182;2022-09-13T04:54:48;18.40;99.90
41904;DHT22;27586;51.124;4.182;2022-09-13T04:57:15;18.40;99.90
41904;DHT22;27586;51.124;4.182;2022-09-13T04:59:43;18.30;99.90
41904;DHT22;27586;51.124;4.182;2022-09-13T05:02:09;18.20;99.90
41904;DHT22;27586;51.124;4.182;2022-09-13T05:04:35;18.20;99.90
41904;DHT22;27586;51.124;4.182;2022-09-13T05:07:00;18.20;99.90
41904;DHT22;27586;51.124;4.182;2022-09-13T05:09:26;18.30;99.90
41904;DHT22;27586;51.124;4.182;2022-09-13T05:11:52;18.30;99.90
41904;DHT22;27586;51.124;4.182;2022-09-13T05:14:18;18.20;99.90
41904;DHT22;27586;51.124;4.182;2022-09-13T05:16:43;18.20;99.90
41904;DHT22;27586;51.124;4.182;2022-09-13T05:19:10;18.10;99.90
41904;DHT22;27586;51.124;4.182;2022-09-13T05:21:36;18.20;99.90
41904;DHT22;27586;51.124;4.182;2022-09-13T05:24:02;18.30;99.90
41904;DHT22;27586;51.124;4.182;2022-09-13T05:26:29;18.30;99.90
41904;DHT22;27586;51.124;4.182;2022-09-13T05:28:58;18.30;99.90
41904;DHT22;27586;51.124;4.182;2022-09-13T05:31:30;18.40;99.90
41904;DHT22;27586;51.124;4.182;2022-09-13T05:34:07;18.30;99.90
41904;DHT22;27586;51.124;4.182;2022-09-13T05:36:35;18.30;99.90
41904;DHT22;27586;51.124;4.182;2022-09-13T05:39:02;18.40;99.90
41904;DHT22;27586;51.124;4.182;2022-09-13T05:41:27;18.40;99.90
41904;DHT22;27586;51.124;4.182;2022-09-13T05:43:53;18.40;99.90
41904;DHT22;27586;51.124;4.182;2022-09-13T05:46:19;18.30;99.90
41904;DHT22;27586;51.124;4.182;2022-09-13T05:48:46;18.30;99.90
41904;DHT22;27586;51.124;4.182;2022-09-13T05:51:20;18.40;99.90
41904;DHT22;27586;51.124;4.182;2022-09-13T05:53:51;18.40;99.90
41904;DHT22;27586;51.124;4.182;2022-09-13T05:56:19;18.40;99.90
41904;DHT22;27586;51.124;4.182;2022-09-13T05:58:47;18.40;99.90
41904;DHT22;27586;51.124;4.182;2022-09-13T06:01:14;18.30;99.90
41904;DHT22;27586;51.124;4.182;2022-09-13T06:03:41;18.40;99.90
41904;DHT22;27586;51.124;4.182;2022-09-13T06:06:07;18.50;99.90
41904;DHT22;27586;51.124;4.182;2022-09-13T06:08:33;18.50;99.90
41904;DHT22;27586;51.124;4.182;2022-09-13T06:11:04;18.50;99.90
41904;DHT22;27586;51.124;4.182;2022-09-13T06:13:31;18.50;99.90
41904;DHT22;27586;51.124;4.182;2022-09-13T06:15:59;18.50;99.90
41904;DHT22;27586;51.124;4.182;2022-09-13T06:18:26;18.50;99.90
41904;DHT22;27586;51.124;4.182;2022-09-13T06:20:59;18.60;99.90
41904;DHT22;27586;51.124;4.182;2022-09-13T06:23:26;18.60;99.90
41904;DHT22;27586;51.124;4.182;2022-09-13T06:26:10;18.60;99.90
41904;DHT22;27586;51.124;4.182;2022-09-13T06:28:36;18.60;99.90
41904;DHT22;27586;51.124;4.182;2022-09-13T06:31:09;18.70;99.90
41904;DHT22;27586;51.124;4.182;2022-09-13T06:33:37;18.70;99.90
41904;DHT22;27586;51.124;4.182;2022-09-13T06:36:08;18.80;99.90
41904;DHT22;27586;51.124;4.182;2022-09-13T06:38:34;18.80;99.90
41904;DHT22;27586;51.124;4.182;2022-09-13T06:41:08;18.80;99.90
41904;DHT22;27586;51.124;4.182;2022-09-13T06:43:35;18.90;99.90
41904;DHT22;27586;51.124;4.182;2022-09-13T06:46:02;18.90;99.90
41904;DHT22;27586;51.124;4.182;2022-09-13T06:48:33;19.00;99.90
41904;DHT22;27586;51.124;4.182;2022-09-13T06:51:01;19.00;99.90
41904;DHT22;27586;51.124;4.182;2022-09-13T06:53:28;19.00;99.90
41904;DHT22;27586;51.124;4.182;2022-09-13T06:59:02;19.10;99.90
41904;DHT22;27586;51.124;4.182;2022-09-13T07:01:41;19.10;99.90
41904;DHT22;27586;51.124;4.182;2022-09-13T07:04:15;19.20;99.90
41904;DHT22;27586;51.124;4.182;2022-09-13T07:06:43;19.10;99.90
41904;DHT22;27586;51.124;4.182;2022-09-13T07:09:18;19.20;99.90
41904;DHT22;27586;51.124;4.182;2022-09-13T07:11:45;19.30;99.90
41904;DHT22;27586;51.124;4.182;2022-09-13T07:14:16;19.30;99.90
41904;DHT22;27586;51.124;4.182;2022-09-13T07:16:43;19.30;99.90
41904;DHT22;27586;51.124;4.182;2022-09-13T07:19:19;19.40;99.90
41904;DHT22;27586;51.124;4.182;2022-09-13T07:21:45;19.50;99.90
41904;DHT22;27586;51.124;4.182;2022-09-13T07:24:11;19.60;99.90
41904;DHT22;27586;51.124;4.182;2022-09-13T07:26:37;19.60;99.90
41904;DHT22;27586;51.124;4.182;2022-09-13T07:29:06;19.80;99.90
41904;DHT22;27586;51.124;4.182;2022-09-13T07:31:34;19.80;99.90
41904;DHT22;27586;51.124;4.182;2022-09-13T07:34:06;19.80;99.90
41904;DHT22;27586;51.124;4.182;2022-09-13T07:36:34;20.00;99.90
41904;DHT22;27586;51.124;4.182;2022-09-13T07:39:00;20.10;99.90
41904;DHT22;27586;51.124;4.182;2022-09-13T07:41:28;20.20;99.90
41904;DHT22;27586;51.124;4.182;2022-09-13T07:43:54;20.20;99.90
41904;DHT22;27586;51.124;4.182;2022-09-13T07:46:22;20.30;99.90
41904;DHT22;27586;51.124;4.182;2022-09-13T07:48:50;20.40;99.90
41904;DHT22;27586;51.124;4.182;2022-09-13T07:51:18;20.40;99.90
41904;DHT22;27586;51.124;4.182;2022-09-13T07:53:46;20.40;99.90
41904;DHT22;27586;51.124;4.182;2022-09-13T07:56:14;20.50;99.90
41904;DHT22;27586;51.124;4.182;2022-09-13T07:58:42;20.60;99.90
41904;DHT22;27586;51.124;4.182;2022-09-13T08:01:13;20.60;99.90
41904;DHT22;27586;51.124;4.182;2022-09-13T08:03:40;20.70;99.90
41904;DHT22;27586;51.124;4.182;2022-09-13T08:06:07;20.90;99.90
41904;DHT22;27586;51.124;4.182;2022-09-13T08:08:33;21.00;99.90
41904;DHT22;27586;51.124;4.182;2022-09-13T08:11:00;21.10;99.90
41904;DHT22;27586;51.124;4.182;2022-09-13T08:13:27;21.30;99.90
41904;DHT22;27586;51.124;4.182;2022-09-13T08:15:54;21.50;99.90
41904;DHT22;27586;51.124;4.182;2022-09-13T08:18:20;21.60;99.90
41904;DHT22;27586;51.124;4.182;2022-09-13T08:20:46;21.80;99.90
41904;DHT22;27586;51.124;4.182;2022-09-13T08:23:13;22.10;99.90
41904;DHT22;27586;51.124;4.182;2022-09-13T08:25:39;22.30;99.90
41904;DHT22;27586;51.124;4.182;2022-09-13T08:28:06;22.30;99.90
41904;DHT22;27586;51.124;4.182;2022-09-13T08:30:33;22.10;99.90
41904;DHT22;27586;51.124;4.182;2022-09-13T08:33:02;22.10;99.90
41904;DHT22;27586;51.124;4.182;2022-09-13T08:35:28;22.20;99.90
41904;DHT22;27586;51.124;4.182;2022-09-13T08:37:55;22.30;99.90
41904;DHT22;27586;51.124;4.182;2022-09-13T08:40:21;22.50;99.90
41904;DHT22;27586;51.124;4.182;2022-09-13T08:45:29;22.60;99.90
41904;DHT22;27586;51.124;4.182;2022-09-13T08:48:03;22.60;99.90
41904;DHT22;27586;51.124;4.182;2022-09-13T08:50:33;22.70;99.90
41904;DHT22;27586;51.124;4.182;2022-09-13T08:53:25;22.80;99.90
41904;DHT22;27586;51.124;4.182;2022-09-13T09:04:00;23.30;99.90
41904;DHT22;27586;51.124;4.182;2022-09-13T09:06:28;23.30;99.90
41904;DHT22;27586;51.124;4.182;2022-09-13T09:09:03;23.20;99.90
41904;DHT22;27586;51.124;4.182;2022-09-13T09:11:55;23.20;99.90
41904;DHT22;27586;51.124;4.182;2022-09-13T09:14:30;23.10;99.90
41904;DHT22;27586;51.124;4.182;2022-09-13T09:17:01;23.30;99.90
41904;DHT22;27586;51.124;4.182;2022-09-13T09:19:33;23.50;99.90
41904;DHT22;27586;51.124;4.182;2022-09-13T09:22:08;23.70;99.90
41904;DHT22;27586;51.124;4.182;2022-09-13T09:24:36;23.90;99.90
41904;DHT22;27586;51.124;4.182;2022-09-13T09:27:14;24.00;99.90
41904;DHT22;27586;51.124;4.182;2022-09-13T09:29:41;24.20;99.90
41904;DHT22;27586;51.124;4.182;2022-09-13T09:37:25;24.20;99.90
41904;DHT22;27586;51.124;4.182;2022-09-13T09:39:56;24.20;99.90
41904;DHT22;27586;51.124;4.182;2022-09-13T09:42:28;24.40;99.90
41904;DHT22;27586;51.124;4.182;2022-09-13T09:45:11;24.40;99.90
41904;DHT22;27586;51.124;4.182;2022-09-13T09:47:47;24.40;99.90
41904;DHT22;27586;51.124;4.182;2022-09-13T09:50:17;24.40;99.90
41904;DHT22;27586;51.124;4.182;2022-09-13T09:53:02;24.70;99.90
41904;DHT22;27586;51.124;4.182;2022-09-13T09:55:31;24.70;99.90
41904;DHT22;27586;51.124;4.182;2022-09-13T09:58:04;24.60;99.90
41904;DHT22;27586;51.124;4.182;2022-09-13T10:00:35;24.80;99.90
41904;DHT22;27586;51.124;4.182;2022-09-13T10:03:07;24.70;99.90
41904;DHT22;27586;51.124;4.182;2022-09-13T10:05:42;24.70;99.90
41904;DHT22;27586;51.124;4.182;2022-09-13T10:08:27;24.50;99.90
41904;DHT22;27586;51.124;4.182;2022-09-13T10:10:55;24.80;99.90
41904;DHT22;27586;51.124;4.182;2022-09-13T10:13:23;24.90;99.90
41904;DHT22;27586;51.124;4.182;2022-09-13T10:16:02;24.90;99.90
41904;DHT22;27586;51.124;4.182;2022-09-13T10:18:29;24.70;99.90
41904;DHT22;27586;51.124;4.182;2022-09-13T10:23:47;24.60;99.90
41904;DHT22;27586;51.124;4.182;2022-09-13T10:26:25;24.70;99.90
41904;DHT22;27586;51.124;4.182;2022-09-13T10:31:18;24.50;99.90
41904;DHT22;27586;51.124;4.182;2022-09-13T10:37:27;24.50;99.90
41904;DHT22;27586;51.124;4.182;2022-09-13T10:39:35;24.60;99.90
41904;DHT22;27586;51.124;4.182;2022-09-13T10:42:08;24.70;99.90
41904;DHT22;27586;51.124;4.182;2022-09-13T10:44:50;24.60;99.90
41904;DHT22;27586;51.124;4.182;2022-09-13T10:47:20;24.70;99.90
41904;DHT22;27586;51.124;4.182;2022-09-13T10:49:50;24.90;99.90
41904;DHT22;27586;51.124;4.182;2022-09-13T10:52:47;25.20;99.90
41904;DHT22;27586;51.124;4.182;2022-09-13T10:57:46;25.50;99.90
41904;DHT22;27586;51.124;4.182;2022-09-13T11:00:15;25.00;99.90
41904;DHT22;27586;51.124;4.182;2022-09-13T11:05:28;24.30;99.90
41904;DHT22;27586;51.124;4.182;2022-09-13T11:17:02;24.20;99.90
41904;DHT22;27586;51.124;4.182;2022-09-13T11:47:52;25.30;99.90
41904;DHT22;27586;51.124;4.182;2022-09-13T11:53:35;25.30;99.90
41904;DHT22;27586;51.124;4.182;2022-09-13T11:56:15;25.30;99.90
41904;DHT22;27586;51.124;4.182;2022-09-13T12:01:18;25.20;99.90
41904;DHT22;27586;51.124;4.182;2022-09-13T12:03:57;25.40;99.90
41904;DHT22;27586;51.124;4.182;2022-09-13T12:06:33;25.50;99.90
41904;DHT22;27586;51.124;4.182;2022-09-13T12:09:11;25.10;99.90
41904;DHT22;27586;51.124;4.182;2022-09-13T12:11:44;25.00;99.90
41904;DHT22;27586;51.124;4.182;2022-09-13T12:14:16;24.90;99.90
41904;DHT22;27586;51.124;4.182;2022-09-13T12:16:44;24.60;99.90
41904;DHT22;27586;51.124;4.182;2022-09-13T12:19:26;24.40;99.90
41904;DHT22;27586;51.124;4.182;2022-09-13T12:21:55;24.30;99.90
41904;DHT22;27586;51.124;4.182;2022-09-13T12:24:37;24.40;99.90
41904;DHT22;27586;51.124;4.182;2022-09-13T12:27:06;24.50;99.90
41904;DHT22;27586;51.124;4.182;2022-09-13T12:30:22;24.60;99.90
41904;DHT22;27586;51.124;4.182;2022-09-13T12:32:50;24.70;99.90
41904;DHT22;27586;51.124;4.182;2022-09-13T12:49:42;24.30;99.90
41904;DHT22;27586;51.124;4.182;2022-09-13T12:52:29;24.20;99.90
41904;DHT22;27586;51.124;4.182;2022-09-13T13:03:23;23.80;99.90
41904;DHT22;27586;51.124;4.182;2022-09-13T13:06:10;23.70;99.90
41904;DHT22;27586;51.124;4.182;2022-09-13T13:08:41;23.50;99.90
41904;DHT22;27586;51.124;4.182;2022-09-13T13:11:14;23.40;99.90
41904;DHT22;27586;51.124;4.182;2022-09-13T13:13:43;23.30;99.90
41904;DHT22;27586;51.124;4.182;2022-09-13T13:18:58;23.20;99.90
41904;DHT22;27586;51.124;4.182;2022-09-13T13:26:56;22.90;99.90
41904;DHT22;27586;51.124;4.182;2022-09-13T13:29:29;22.80;99.90
41904;DHT22;27586;51.124;4.182;2022-09-13T13:39:37;22.50;99.90
41904;DHT22;27586;51.124;4.182;2022-09-13T13:42:23;22.40;99.90
41904;DHT22;27586;51.124;4.182;2022-09-13T13:44:55;22.40;99.90
41904;DHT22;27586;51.124;4.182;2022-09-13T13:50:15;22.50;99.90
41904;DHT22;27586;51.124;4.182;2022-09-13T13:55:43;22.60;99.90
41904;DHT22;27586;51.124;4.182;2022-09-13T13:58:47;22.60;99.90
41904;DHT22;27586;51.124;4.182;2022-09-13T14:01:19;22.50;99.90
41904;DHT22;27586;51.124;4.182;2022-09-13T14:06:59;22.40;99.90
41904;DHT22;27586;51.124;4.182;2022-09-13T14:12:14;22.20;99.90
41904;DHT22;27586;51.124;4.182;2022-09-13T14:20:14;22.20;99.90
41904;DHT22;27586;51.124;4.182;2022-09-13T14:22:40;22.30;99.90
41904;DHT22;27586;51.124;4.182;2022-09-13T14:27:45;22.20;99.90
41904;DHT22;27586;51.124;4.182;2022-09-13T14:30:34;22.10;99.90
41904;DHT22;27586;51.124;4.182;2022-09-13T14:33:00;22.10;99.90
41904;DHT22;27586;51.124;4.182;2022-09-13T14:35:33;22.00;99.90
41904;DHT22;27586;51.124;4.182;2022-09-13T14:38:24;22.00;99.90
41904;DHT22;27586;51.124;4.182;2022-09-13T14:40:52;21.90;99.90
41904;DHT22;27586;51.124;4.182;2022-09-13T14:43:26;21.90;99.90
41904;DHT22;27586;51.124;4.182;2022-09-13T14:46:22;21.90;99.90
41904;DHT22;27586;51.124;4.182;2022-09-13T14:49:07;21.90;99.90
41904;DHT22;27586;51.124;4.182;2022-09-13T14:51:49;21.80;99.90
41904;DHT22;27586;51.124;4.182;2022-09-13T14:56:50;21.60;99.90
41904;DHT22;27586;51.124;4.182;2022-09-13T15:01:48;21.60;99.90
41904;DHT22;27586;51.124;4.182;2022-09-13T15:04:16;21.60;99.90
41904;DHT22;27586;51.124;4.182;2022-09-13T15:06:43;21.60;99.90
41904;DHT22;27586;51.124;4.182;2022-09-13T15:11:58;21.60;99.90
41904;DHT22;27586;51.124;4.182;2022-09-13T15:17:13;21.70;99.90
41904;DHT22;27586;51.124;4.182;2022-09-13T15:24:49;21.60;99.90
41904;DHT22;27586;51.124;4.182;2022-09-13T15:27:30;21.70;99.90
41904;DHT22;27586;51.124;4.182;2022-09-13T15:30:19;21.60;99.90
41904;DHT22;27586;51.124;4.182;2022-09-13T15:32:45;21.70;99.90
41904;DHT22;27586;51.124;4.182;2022-09-13T15:35:20;21.70;99.90
41904;DHT22;27586;51.124;4.182;2022-09-13T15:38:00;21.70;99.90
41904;DHT22;27586;51.124;4.182;2022-09-13T15:40:42;21.70;99.90
41904;DHT22;27586;51.124;4.182;2022-09-13T15:43:08;21.80;99.90
41904;DHT22;27586;51.124;4.182;2022-09-13T15:45:34;21.80;99.90
41904;DHT22;27586;51.124;4.182;2022-09-13T15:47:59;21.80;99.90
41904;DHT22;27586;51.124;4.182;2022-09-13T15:50:28;21.70;99.90
41904;DHT22;27586;51.124;4.182;2022-09-13T15:52:56;21.70;99.90
41904;DHT22;27586;51.124;4.182;2022-09-13T15:55:23;21.70;99.90
41904;DHT22;27586;51.124;4.182;2022-09-13T15:57:49;21.70;99.90
41904;DHT22;27586;51.124;4.182;2022-09-13T16:00:23;21.70;99.90
41904;DHT22;27586;51.124;4.182;2022-09-13T16:02:50;21.70;99.90
41904;DHT22;27586;51.124;4.182;2022-09-13T16:05:16;21.60;99.90
41904;DHT22;27586;51.124;4.182;2022-09-13T16:07:43;21.70;99.90
41904;DHT22;27586;51.124;4.182;2022-09-13T16:10:19;21.70;99.90
41904;DHT22;27586;51.124;4.182;2022-09-13T16:12:45;21.70;99.90
41904;DHT22;27586;51.124;4.182;2022-09-13T16:15:11;21.70;99.90
41904;DHT22;27586;51.124;4.182;2022-09-13T16:17:37;21.70;99.90
41904;DHT22;27586;51.124;4.182;2022-09-13T16:20:04;21.60;99.90
41904;DHT22;27586;51.124;4.182;2022-09-13T16:22:31;21.60;99.90
41904;DHT22;27586;51.124;4.182;2022-09-13T16:24:57;21.50;99.90
41904;DHT22;27586;51.124;4.182;2022-09-13T16:27:22;21.50;99.90
41904;DHT22;27586;51.124;4.182;2022-09-13T16:29:51;21.50;99.90
41904;DHT22;27586;51.124;4.182;2022-09-13T16:32:17;21.40;99.90
41904;DHT22;27586;51.124;4.182;2022-09-13T16:34:43;21.20;99.90
41904;DHT22;27586;51.124;4.182;2022-09-13T16:37:13;21.10;99.90
41904;DHT22;27586;51.124;4.182;2022-09-13T16:39:39;21.10;99.90
41904;DHT22;27586;51.124;4.182;2022-09-13T16:42:04;21.10;99.90
41904;DHT22;27586;51.124;4.182;2022-09-13T16:44:30;21.00;99.90
41904;DHT22;27586;51.124;4.182;2022-09-13T16:46:56;21.00;99.90
41904;DHT22;27586;51.124;4.182;2022-09-13T16:49:21;20.90;99.90
41904;DHT22;27586;51.124;4.182;2022-09-13T16:51:47;20.80;99.90
41904;DHT22;27586;51.124;4.182;2022-09-13T16:54:13;20.80;99.90
41904;DHT22;27586;51.124;4.182;2022-09-13T16:56:38;20.70;99.90
41904;DHT22;27586;51.124;4.182;2022-09-13T16:59:04;20.70;99.90
41904;DHT22;27586;51.124;4.182;2022-09-13T17:01:30;20.70;99.90
41904;DHT22;27586;51.124;4.182;2022-09-13T17:03:56;20.70;99.90
41904;DHT22;27586;51.124;4.182;2022-09-13T17:06:23;20.60;99.90
41904;DHT22;27586;51.124;4.182;2022-09-13T17:08:54;20.60;99.90
41904;DHT22;27586;51.124;4.182;2022-09-13T17:11:23;20.70;99.90
41904;DHT22;27586;51.124;4.182;2022-09-13T17:13:49;20.60;99.90
41904;DHT22;27586;51.124;4.182;2022-09-13T17:16:22;20.60;99.90
41904;DHT22;27586;51.124;4.182;2022-09-13T17:18:48;20.60;99.90
41904;DHT22;27586;51.124;4.182;2022-09-13T17:21:14;20.50;99.90
41904;DHT22;27586;51.124;4.182;2022-09-13T17:23:39;20.50;99.90
41904;DHT22;27586;51.124;4.182;2022-09-13T17:26:05;20.40;99.90
41904;DHT22;27586;51.124;4.182;2022-09-13T17:28:32;20.40;99.90
41904;DHT22;27586;51.124;4.182;2022-09-13T17:31:01;20.40;99.90
41904;DHT22;27586;51.124;4.182;2022-09-13T17:33:26;20.30;99.90
41904;DHT22;27586;51.124;4.182;2022-09-13T17:36:04;20.30;99.90
41904;DHT22;27586;51.124;4.182;2022-09-13T17:38:31;20.30;99.90
41904;DHT22;27586;51.124;4.182;2022-09-13T17:41:02;20.20;99.90
41904;DHT22;27586;51.124;4.182;2022-09-13T17:43:28;20.20;99.90
41904;DHT22;27586;51.124;4.182;2022-09-13T17:45:54;20.10;99.90
41904;DHT22;27586;51.124;4.182;2022-09-13T17:48:19;20.10;99.90
41904;DHT22;27586;51.124;4.182;2022-09-13T17:50:45;20.10;99.90
41904;DHT22;27586;51.124;4.182;2022-09-13T17:53:11;20.00;99.90
41904;DHT22;27586;51.124;4.182;2022-09-13T17:55:48;20.00;99.90
41904;DHT22;27586;51.124;4.182;2022-09-13T17:58:14;20.10;99.90
41904;DHT22;27586;51.124;4.182;2022-09-13T18:00:41;20.00;99.90
41904;DHT22;27586;51.124;4.182;2022-09-13T18:03:07;20.00;99.90
41904;DHT22;27586;51.124;4.182;2022-09-13T18:05:32;19.90;99.90
41904;DHT22;27586;51.124;4.182;2022-09-13T18:07:58;19.90;99.90
41904;DHT22;27586;51.124;4.182;2022-09-13T18:10:24;19.90;99.90
41904;DHT22;27586;51.124;4.182;2022-09-13T18:12:49;19.90;99.90
41904;DHT22;27586;51.124;4.182;2022-09-13T18:15:15;19.90;99.90
41904;DHT22;27586;51.124;4.182;2022-09-13T18:17:41;19.90;99.90
41904;DHT22;27586;51.124;4.182;2022-09-13T18:20:07;19.80;99.90
41904;DHT22;27586;51.124;4.182;2022-09-13T18:22:32;19.80;99.90
41904;DHT22;27586;51.124;4.182;2022-09-13T18:24:58;19.80;99.90
41904;DHT22;27586;51.124;4.182;2022-09-13T18:27:24;19.80;99.90
41904;DHT22;27586;51.124;4.182;2022-09-13T18:29:49;19.90;99.90
41904;DHT22;27586;51.124;4.182;2022-09-13T18:32:15;19.90;99.90
41904;DHT22;27586;51.124;4.182;2022-09-13T18:34:41;19.90;99.90
41904;DHT22;27586;51.124;4.182;2022-09-13T18:37:08;19.90;99.90
41904;DHT22;27586;51.124;4.182;2022-09-13T18:39:33;19.80;99.90
41904;DHT22;27586;51.124;4.182;2022-09-13T18:42:00;19.80;99.90
41904;DHT22;27586;51.124;4.182;2022-09-13T18:44:25;19.80;99.90
41904;DHT22;27586;51.124;4.182;2022-09-13T18:46:55;19.70;99.90
41904;DHT22;27586;51.124;4.182;2022-09-13T18:49:20;19.90;99.90
41904;DHT22;27586;51.124;4.182;2022-09-13T18:51:47;19.70;99.90
41904;DHT22;27586;51.124;4.182;2022-09-13T18:54:16;19.70;99.90
41904;DHT22;27586;51.124;4.182;2022-09-13T18:56:42;19.60;99.90
41904;DHT22;27586;51.124;4.182;2022-09-13T18:59:09;19.60;99.90
41904;DHT22;27586;51.124;4.182;2022-09-13T19:01:37;19.60;99.90
41904;DHT22;27586;51.124;4.182;2022-09-13T19:04:11;19.60;99.90
41904;DHT22;27586;51.124;4.182;2022-09-13T19:06:42;19.60;99.90